Kisakata, Japan
Current Conditions -  °F | °C
As of 8:14 PM on Monday 22 Dec 2014 (Local Time) from RJSY Reporting Station
Snow Showers Snow Showers  
Wind Chill: -5°   Ceiling: 1500
Heat Index:   Visibility: 1.8mi
Dew Point: -1°   Wind: 29mph
Humidity: 81%   Direction: 270°W
Pressure: 29.71"   Gusts: 44mph
Location:  39.22°N, 139.9°E
Report Text: RJSY 221114Z 27025G38KT 3000 -SHSN FEW005 BKN015 BKN025 02/M01 Q1006 RMK 1ST005 5CU015 7CU025 A2973
Loading
Personal Weather Stations






























Interactive Weather Map New forecast layout! Learn more

10-Day Weather Forecast

Advertisements
Track Severe Weather on mobile